sensor_id;sensor_type;location;lat;lon;timestamp;temperature;humidity
24217;DHT22;12356;49.386;8.688;2022-08-18T00:02:21;23.40;60.50
24217;DHT22;12356;49.386;8.688;2022-08-18T00:04:53;23.40;60.70
24217;DHT22;12356;49.386;8.688;2022-08-18T00:07:30;23.30;60.70
24217;DHT22;12356;49.386;8.688;2022-08-18T00:10:02;23.30;60.90
24217;DHT22;12356;49.386;8.688;2022-08-18T00:12:37;23.30;61.00
24217;DHT22;12356;49.386;8.688;2022-08-18T00:15:11;23.30;61.20
24217;DHT22;12356;49.386;8.688;2022-08-18T00:17:43;23.30;60.80
24217;DHT22;12356;49.386;8.688;2022-08-18T00:20:18;23.40;60.60
24217;DHT22;12356;49.386;8.688;2022-08-18T00:22:50;23.30;60.40
24217;DHT22;12356;49.386;8.688;2022-08-18T00:25:22;23.30;60.30
24217;DHT22;12356;49.386;8.688;2022-08-18T00:27:52;23.30;60.60
24217;DHT22;12356;49.386;8.688;2022-08-18T00:30:23;23.20;60.10
24217;DHT22;12356;49.386;8.688;2022-08-18T00:32:56;23.20;60.20
24217;DHT22;12356;49.386;8.688;2022-08-18T00:35:45;23.20;60.10
24217;DHT22;12356;49.386;8.688;2022-08-18T00:38:16;23.20;60.30
24217;DHT22;12356;49.386;8.688;2022-08-18T00:40:48;23.20;59.90
24217;DHT22;12356;49.386;8.688;2022-08-18T00:46:00;23.20;59.70
24217;DHT22;12356;49.386;8.688;2022-08-18T00:48:30;23.20;59.20
24217;DHT22;12356;49.386;8.688;2022-08-18T00:51:07;23.10;59.00
24217;DHT22;12356;49.386;8.688;2022-08-18T00:53:44;23.10;58.90
24217;DHT22;12356;49.386;8.688;2022-08-18T00:56:22;23.10;59.20
24217;DHT22;12356;49.386;8.688;2022-08-18T00:59:08;23.10;59.00
24217;DHT22;12356;49.386;8.688;2022-08-18T01:01:41;23.10;58.80
24217;DHT22;12356;49.386;8.688;2022-08-18T01:04:24;23.00;58.70
24217;DHT22;12356;49.386;8.688;2022-08-18T01:07:01;23.00;58.80
24217;DHT22;12356;49.386;8.688;2022-08-18T01:09:34;23.00;58.80
24217;DHT22;12356;49.386;8.688;2022-08-18T01:12:05;23.00;58.70
24217;DHT22;12356;49.386;8.688;2022-08-18T01:14:36;23.00;58.40
24217;DHT22;12356;49.386;8.688;2022-08-18T01:17:08;23.00;58.60
24217;DHT22;12356;49.386;8.688;2022-08-18T01:19:58;23.00;59.50
24217;DHT22;12356;49.386;8.688;2022-08-18T01:23:20;22.90;59.00
24217;DHT22;12356;49.386;8.688;2022-08-18T01:25:52;22.90;59.00
24217;DHT22;12356;49.386;8.688;2022-08-18T01:28:36;22.80;59.40
24217;DHT22;12356;49.386;8.688;2022-08-18T01:31:07;22.90;59.60
24217;DHT22;12356;49.386;8.688;2022-08-18T01:33:42;22.80;59.70
24217;DHT22;12356;49.386;8.688;2022-08-18T01:36:16;22.80;60.00
24217;DHT22;12356;49.386;8.688;2022-08-18T01:38:50;22.70;60.00
24217;DHT22;12356;49.386;8.688;2022-08-18T01:41:22;22.70;60.30
24217;DHT22;12356;49.386;8.688;2022-08-18T01:43:52;22.70;60.40
24217;DHT22;12356;49.386;8.688;2022-08-18T01:46:23;22.70;60.20
24217;DHT22;12356;49.386;8.688;2022-08-18T01:48:54;22.70;60.30
24217;DHT22;12356;49.386;8.688;2022-08-18T01:51:29;22.70;60.40
24217;DHT22;12356;49.386;8.688;2022-08-18T01:54:01;22.60;60.40
24217;DHT22;12356;49.386;8.688;2022-08-18T01:56:32;22.70;60.50
24217;DHT22;12356;49.386;8.688;2022-08-18T01:59:03;22.70;60.50
24217;DHT22;12356;49.386;8.688;2022-08-18T02:01:37;22.70;60.60
24217;DHT22;12356;49.386;8.688;2022-08-18T02:04:09;22.60;60.70
24217;DHT22;12356;49.386;8.688;2022-08-18T02:06:41;22.60;61.00
24217;DHT22;12356;49.386;8.688;2022-08-18T02:09:12;22.60;61.00
24217;DHT22;12356;49.386;8.688;2022-08-18T02:11:43;22.50;61.30
24217;DHT22;12356;49.386;8.688;2022-08-18T02:14:13;22.50;61.40
24217;DHT22;12356;49.386;8.688;2022-08-18T02:16:44;22.50;61.20
24217;DHT22;12356;49.386;8.688;2022-08-18T02:19:15;22.50;61.20
24217;DHT22;12356;49.386;8.688;2022-08-18T02:21:45;22.50;61.20
24217;DHT22;12356;49.386;8.688;2022-08-18T02:24:16;22.40;61.20
24217;DHT22;12356;49.386;8.688;2022-08-18T02:26:47;22.50;61.00
24217;DHT22;12356;49.386;8.688;2022-08-18T02:29:17;22.40;61.40
24217;DHT22;12356;49.386;8.688;2022-08-18T02:31:48;22.40;61.00
24217;DHT22;12356;49.386;8.688;2022-08-18T02:34:18;22.40;61.20
24217;DHT22;12356;49.386;8.688;2022-08-18T02:36:49;22.40;61.20
24217;DHT22;12356;49.386;8.688;2022-08-18T02:39:20;22.40;61.40
24217;DHT22;12356;49.386;8.688;2022-08-18T02:41:51;22.40;60.90
24217;DHT22;12356;49.386;8.688;2022-08-18T02:44:22;22.40;60.80
24217;DHT22;12356;49.386;8.688;2022-08-18T02:46:53;22.40;61.00
24217;DHT22;12356;49.386;8.688;2022-08-18T02:49:24;22.30;60.50
24217;DHT22;12356;49.386;8.688;2022-08-18T02:51:55;22.40;60.70
24217;DHT22;12356;49.386;8.688;2022-08-18T02:54:25;22.30;60.80
24217;DHT22;12356;49.386;8.688;2022-08-18T02:56:56;22.40;60.70
24217;DHT22;12356;49.386;8.688;2022-08-18T02:59:27;22.30;60.60
24217;DHT22;12356;49.386;8.688;2022-08-18T03:01:57;22.30;60.50
24217;DHT22;12356;49.386;8.688;2022-08-18T03:04:29;22.30;60.40
24217;DHT22;12356;49.386;8.688;2022-08-18T03:07:02;22.30;60.90
24217;DHT22;12356;49.386;8.688;2022-08-18T03:09:34;22.30;59.90
24217;DHT22;12356;49.386;8.688;2022-08-18T03:12:05;22.30;60.00
24217;DHT22;12356;49.386;8.688;2022-08-18T03:14:37;22.30;60.10
24217;DHT22;12356;49.386;8.688;2022-08-18T03:17:09;22.30;60.10
24217;DHT22;12356;49.386;8.688;2022-08-18T03:19:40;22.30;60.10
24217;DHT22;12356;49.386;8.688;2022-08-18T03:22:11;22.30;59.90
24217;DHT22;12356;49.386;8.688;2022-08-18T03:24:41;22.30;60.10
24217;DHT22;12356;49.386;8.688;2022-08-18T03:27:12;22.30;60.10
24217;DHT22;12356;49.386;8.688;2022-08-18T03:29:43;22.30;60.40
24217;DHT22;12356;49.386;8.688;2022-08-18T03:32:13;22.30;60.70
24217;DHT22;12356;49.386;8.688;2022-08-18T03:34:44;22.30;60.90
24217;DHT22;12356;49.386;8.688;2022-08-18T03:37:15;22.30;61.60
24217;DHT22;12356;49.386;8.688;2022-08-18T03:39:45;22.30;62.20
24217;DHT22;12356;49.386;8.688;2022-08-18T03:42:16;22.20;63.00
24217;DHT22;12356;49.386;8.688;2022-08-18T03:44:47;22.20;63.70
24217;DHT22;12356;49.386;8.688;2022-08-18T03:47:18;22.10;64.00
24217;DHT22;12356;49.386;8.688;2022-08-18T03:49:49;22.20;64.70
24217;DHT22;12356;49.386;8.688;2022-08-18T03:52:19;22.20;65.30
24217;DHT22;12356;49.386;8.688;2022-08-18T03:54:50;22.10;66.80
24217;DHT22;12356;49.386;8.688;2022-08-18T03:57:21;22.00;67.40
24217;DHT22;12356;49.386;8.688;2022-08-18T03:59:51;21.90;68.50
24217;DHT22;12356;49.386;8.688;2022-08-18T04:02:24;21.90;69.10
24217;DHT22;12356;49.386;8.688;2022-08-18T04:04:54;21.80;68.80
24217;DHT22;12356;49.386;8.688;2022-08-18T04:07:25;21.80;69.60
24217;DHT22;12356;49.386;8.688;2022-08-18T04:09:56;21.80;70.30
24217;DHT22;12356;49.386;8.688;2022-08-18T04:12:26;21.70;70.80
24217;DHT22;12356;49.386;8.688;2022-08-18T04:14:57;21.70;70.40
24217;DHT22;12356;49.386;8.688;2022-08-18T04:17:28;21.70;70.30
24217;DHT22;12356;49.386;8.688;2022-08-18T04:19:58;21.70;70.50
24217;DHT22;12356;49.386;8.688;2022-08-18T04:22:29;21.70;70.20
24217;DHT22;12356;49.386;8.688;2022-08-18T04:25:03;21.60;70.60
24217;DHT22;12356;49.386;8.688;2022-08-18T04:27:36;21.70;70.60
24217;DHT22;12356;49.386;8.688;2022-08-18T04:30:09;21.60;70.50
24217;DHT22;12356;49.386;8.688;2022-08-18T04:32:40;21.60;70.60
24217;DHT22;12356;49.386;8.688;2022-08-18T04:35:12;21.60;71.00
24217;DHT22;12356;49.386;8.688;2022-08-18T04:37:43;21.60;70.90
24217;DHT22;12356;49.386;8.688;2022-08-18T04:40:14;21.60;70.90
24217;DHT22;12356;49.386;8.688;2022-08-18T04:42:45;21.70;70.90
24217;DHT22;12356;49.386;8.688;2022-08-18T04:45:16;21.70;70.80
24217;DHT22;12356;49.386;8.688;2022-08-18T04:47:46;21.60;70.60
24217;DHT22;12356;49.386;8.688;2022-08-18T04:50:17;21.60;70.50
24217;DHT22;12356;49.386;8.688;2022-08-18T04:52:48;21.60;70.50
24217;DHT22;12356;49.386;8.688;2022-08-18T04:55:37;21.60;70.40
24217;DHT22;12356;49.386;8.688;2022-08-18T04:58:08;21.70;70.30
24217;DHT22;12356;49.386;8.688;2022-08-18T05:00:39;21.60;70.70
24217;DHT22;12356;49.386;8.688;2022-08-18T05:03:09;21.60;70.90
24217;DHT22;12356;49.386;8.688;2022-08-18T05:05:40;21.60;71.00
24217;DHT22;12356;49.386;8.688;2022-08-18T05:08:11;21.60;70.70
24217;DHT22;12356;49.386;8.688;2022-08-18T05:10:41;21.60;70.80
24217;DHT22;12356;49.386;8.688;2022-08-18T05:13:12;21.50;71.00
24217;DHT22;12356;49.386;8.688;2022-08-18T05:15:52;21.50;71.10
24217;DHT22;12356;49.386;8.688;2022-08-18T05:18:23;21.50;71.20
24217;DHT22;12356;49.386;8.688;2022-08-18T05:20:55;21.50;71.10
24217;DHT22;12356;49.386;8.688;2022-08-18T05:23:27;21.50;71.10
24217;DHT22;12356;49.386;8.688;2022-08-18T05:25:59;21.50;71.30
24217;DHT22;12356;49.386;8.688;2022-08-18T05:28:33;21.50;71.30
24217;DHT22;12356;49.386;8.688;2022-08-18T05:31:11;21.50;71.30
24217;DHT22;12356;49.386;8.688;2022-08-18T05:33:42;21.50;71.20
24217;DHT22;12356;49.386;8.688;2022-08-18T05:39:25;21.50;71.60
24217;DHT22;12356;49.386;8.688;2022-08-18T05:42:07;21.50;71.50
24217;DHT22;12356;49.386;8.688;2022-08-18T05:44:46;21.50;71.30
24217;DHT22;12356;49.386;8.688;2022-08-18T05:47:26;21.60;71.50
24217;DHT22;12356;49.386;8.688;2022-08-18T05:50:14;21.50;71.50
24217;DHT22;12356;49.386;8.688;2022-08-18T05:58:18;21.50;71.70
24217;DHT22;12356;49.386;8.688;2022-08-18T06:00:54;21.50;71.80
24217;DHT22;12356;49.386;8.688;2022-08-18T06:03:39;21.50;72.00
24217;DHT22;12356;49.386;8.688;2022-08-18T06:06:20;21.50;72.30
24217;DHT22;12356;49.386;8.688;2022-08-18T06:09:10;21.50;72.30
24217;DHT22;12356;49.386;8.688;2022-08-18T06:11:42;21.50;72.40
24217;DHT22;12356;49.386;8.688;2022-08-18T06:14:13;21.50;72.40
24217;DHT22;12356;49.386;8.688;2022-08-18T06:17:14;21.50;72.50
24217;DHT22;12356;49.386;8.688;2022-08-18T06:19:50;21.50;72.40
24217;DHT22;12356;49.386;8.688;2022-08-18T06:22:53;21.50;72.40
24217;DHT22;12356;49.386;8.688;2022-08-18T06:26:06;21.60;72.80
24217;DHT22;12356;49.386;8.688;2022-08-18T06:31:34;21.60;72.40
24217;DHT22;12356;49.386;8.688;2022-08-18T06:34:13;21.60;72.70
24217;DHT22;12356;49.386;8.688;2022-08-18T06:36:54;21.60;72.80
24217;DHT22;12356;49.386;8.688;2022-08-18T06:39:48;21.60;72.70
24217;DHT22;12356;49.386;8.688;2022-08-18T06:42:23;21.70;72.90
24217;DHT22;12356;49.386;8.688;2022-08-18T06:45:04;21.70;72.60
24217;DHT22;12356;49.386;8.688;2022-08-18T06:47:38;21.70;72.80
24217;DHT22;12356;49.386;8.688;2022-08-18T06:50:31;21.60;72.80
24217;DHT22;12356;49.386;8.688;2022-08-18T06:53:06;21.70;73.00
24217;DHT22;12356;49.386;8.688;2022-08-18T06:55:45;21.70;73.00
24217;DHT22;12356;49.386;8.688;2022-08-18T07:06:10;21.60;73.30
24217;DHT22;12356;49.386;8.688;2022-08-18T07:08:54;21.60;73.60
24217;DHT22;12356;49.386;8.688;2022-08-18T07:11:29;21.60;73.50
24217;DHT22;12356;49.386;8.688;2022-08-18T07:15:14;21.70;73.60
24217;DHT22;12356;49.386;8.688;2022-08-18T07:17:31;21.70;74.10
24217;DHT22;12356;49.386;8.688;2022-08-18T07:22:59;21.60;74.00
24217;DHT22;12356;49.386;8.688;2022-08-18T07:25:40;21.60;74.10
24217;DHT22;12356;49.386;8.688;2022-08-18T07:28:31;21.70;74.10
24217;DHT22;12356;49.386;8.688;2022-08-18T07:33:55;21.70;74.40
24217;DHT22;12356;49.386;8.688;2022-08-18T07:36:41;21.60;74.40
24217;DHT22;12356;49.386;8.688;2022-08-18T07:39:24;21.70;74.40
24217;DHT22;12356;49.386;8.688;2022-08-18T07:42:09;21.70;74.30
24217;DHT22;12356;49.386;8.688;2022-08-18T07:44:59;21.70;74.70
24217;DHT22;12356;49.386;8.688;2022-08-18T07:47:45;21.70;74.70
24217;DHT22;12356;49.386;8.688;2022-08-18T07:50:20;21.70;74.30
24217;DHT22;12356;49.386;8.688;2022-08-18T07:55:56;21.70;74.80
24217;DHT22;12356;49.386;8.688;2022-08-18T07:59:20;21.70;74.80
24217;DHT22;12356;49.386;8.688;2022-08-18T08:05:04;21.70;74.90
24217;DHT22;12356;49.386;8.688;2022-08-18T08:07:45;21.70;74.80
24217;DHT22;12356;49.386;8.688;2022-08-18T08:10:49;21.70;74.70
24217;DHT22;12356;49.386;8.688;2022-08-18T08:13:17;21.70;75.00
24217;DHT22;12356;49.386;8.688;2022-08-18T08:16:02;21.70;75.50
24217;DHT22;12356;49.386;8.688;2022-08-18T08:18:59;21.70;75.50
24217;DHT22;12356;49.386;8.688;2022-08-18T08:21:38;21.70;75.70
24217;DHT22;12356;49.386;8.688;2022-08-18T08:24:51;21.80;76.70
24217;DHT22;12356;49.386;8.688;2022-08-18T08:28:05;21.70;78.80
24217;DHT22;12356;49.386;8.688;2022-08-18T08:31:06;21.70;78.80
24217;DHT22;12356;49.386;8.688;2022-08-18T08:33:55;21.60;79.20
24217;DHT22;12356;49.386;8.688;2022-08-18T08:36:39;21.50;80.00
24217;DHT22;12356;49.386;8.688;2022-08-18T08:39:50;21.50;80.00
24217;DHT22;12356;49.386;8.688;2022-08-18T08:42:38;21.50;80.70
24217;DHT22;12356;49.386;8.688;2022-08-18T08:45:38;21.50;80.90
24217;DHT22;12356;49.386;8.688;2022-08-18T08:48:26;21.50;81.00
24217;DHT22;12356;49.386;8.688;2022-08-18T08:51:02;21.40;81.40
24217;DHT22;12356;49.386;8.688;2022-08-18T08:53:46;21.40;81.60
24217;DHT22;12356;49.386;8.688;2022-08-18T08:56:21;21.40;81.30
24217;DHT22;12356;49.386;8.688;2022-08-18T08:59:25;21.40;81.50
24217;DHT22;12356;49.386;8.688;2022-08-18T09:10:50;21.30;83.30
24217;DHT22;12356;49.386;8.688;2022-08-18T09:13:32;21.30;84.40
24217;DHT22;12356;49.386;8.688;2022-08-18T09:18:54;21.30;85.50
24217;DHT22;12356;49.386;8.688;2022-08-18T09:24:30;21.30;86.40
24217;DHT22;12356;49.386;8.688;2022-08-18T09:30:05;21.40;87.70
24217;DHT22;12356;49.386;8.688;2022-08-18T09:38:29;21.60;88.10
24217;DHT22;12356;49.386;8.688;2022-08-18T09:41:23;21.60;88.00
24217;DHT22;12356;49.386;8.688;2022-08-18T09:44:04;21.70;88.00
24217;DHT22;12356;49.386;8.688;2022-08-18T09:51:57;21.80;88.40
24217;DHT22;12356;49.386;8.688;2022-08-18T09:54:32;21.80;87.70
24217;DHT22;12356;49.386;8.688;2022-08-18T10:02:09;22.00;88.80
24217;DHT22;12356;49.386;8.688;2022-08-18T10:04:42;22.00;89.00
24217;DHT22;12356;49.386;8.688;2022-08-18T10:21:13;22.30;81.90
24217;DHT22;12356;49.386;8.688;2022-08-18T10:29:12;22.40;81.30
24217;DHT22;12356;49.386;8.688;2022-08-18T10:34:51;22.50;80.50
24217;DHT22;12356;49.386;8.688;2022-08-18T10:37:43;22.50;80.80
24217;DHT22;12356;49.386;8.688;2022-08-18T10:40:16;22.60;80.80
24217;DHT22;12356;49.386;8.688;2022-08-18T10:43:08;22.50;80.50
24217;DHT22;12356;49.386;8.688;2022-08-18T10:45:51;22.60;81.60
24217;DHT22;12356;49.386;8.688;2022-08-18T10:48:31;22.60;81.20
24217;DHT22;12356;49.386;8.688;2022-08-18T10:51:18;22.60;80.10
24217;DHT22;12356;49.386;8.688;2022-08-18T10:54:11;22.60;79.70
24217;DHT22;12356;49.386;8.688;2022-08-18T10:56:51;22.60;80.60
24217;DHT22;12356;49.386;8.688;2022-08-18T10:59:32;22.60;80.40
24217;DHT22;12356;49.386;8.688;2022-08-18T11:05:05;22.60;79.30
24217;DHT22;12356;49.386;8.688;2022-08-18T11:07:38;22.60;79.30
24217;DHT22;12356;49.386;8.688;2022-08-18T11:10:20;22.60;79.50
24217;DHT22;12356;49.386;8.688;2022-08-18T11:13:20;22.60;79.10
24217;DHT22;12356;49.386;8.688;2022-08-18T11:18:48;22.70;78.80
24217;DHT22;12356;49.386;8.688;2022-08-18T11:26:46;22.70;77.60
24217;DHT22;12356;49.386;8.688;2022-08-18T11:37:43;22.70;78.00
24217;DHT22;12356;49.386;8.688;2022-08-18T11:40:39;22.80;77.70
24217;DHT22;12356;49.386;8.688;2022-08-18T11:43:17;22.80;77.00
24217;DHT22;12356;49.386;8.688;2022-08-18T11:45:55;22.90;76.50
24217;DHT22;12356;49.386;8.688;2022-08-18T11:48:48;22.90;75.70
24217;DHT22;12356;49.386;8.688;2022-08-18T11:53:57;23.00;75.80
24217;DHT22;12356;49.386;8.688;2022-08-18T11:56:32;23.00;75.80
24217;DHT22;12356;49.386;8.688;2022-08-18T12:01:48;23.10;76.10
24217;DHT22;12356;49.386;8.688;2022-08-18T12:04:21;23.10;75.70
24217;DHT22;12356;49.386;8.688;2022-08-18T12:06:57;23.10;75.70
24217;DHT22;12356;49.386;8.688;2022-08-18T12:12:27;23.20;75.50
24217;DHT22;12356;49.386;8.688;2022-08-18T12:17:42;23.40;74.20
24217;DHT22;12356;49.386;8.688;2022-08-18T12:20:16;23.50;73.70
24217;DHT22;12356;49.386;8.688;2022-08-18T12:22:47;23.60;73.80
24217;DHT22;12356;49.386;8.688;2022-08-18T12:25:19;23.70;73.10
24217;DHT22;12356;49.386;8.688;2022-08-18T12:27:50;23.80;72.50
24217;DHT22;12356;49.386;8.688;2022-08-18T12:30:21;23.90;72.00
24217;DHT22;12356;49.386;8.688;2022-08-18T12:32:52;24.00;70.80
24217;DHT22;12356;49.386;8.688;2022-08-18T12:35:22;24.10;69.90
24217;DHT22;12356;49.386;8.688;2022-08-18T12:37:53;24.20;68.30
24217;DHT22;12356;49.386;8.688;2022-08-18T12:40:26;24.30;67.30
24217;DHT22;12356;49.386;8.688;2022-08-18T12:42:56;24.30;67.40
24217;DHT22;12356;49.386;8.688;2022-08-18T12:45:27;24.50;67.50
24217;DHT22;12356;49.386;8.688;2022-08-18T12:48:00;24.60;66.80
24217;DHT22;12356;49.386;8.688;2022-08-18T12:50:32;24.60;66.10
24217;DHT22;12356;49.386;8.688;2022-08-18T12:53:03;24.70;66.20
24217;DHT22;12356;49.386;8.688;2022-08-18T12:55:38;24.70;65.80
24217;DHT22;12356;49.386;8.688;2022-08-18T12:58:09;24.70;65.70
24217;DHT22;12356;49.386;8.688;2022-08-18T13:00:41;24.70;65.70
24217;DHT22;12356;49.386;8.688;2022-08-18T13:03:12;24.70;65.70
24217;DHT22;12356;49.386;8.688;2022-08-18T13:05:42;24.60;66.00
24217;DHT22;12356;49.386;8.688;2022-08-18T13:08:19;24.50;66.00
24217;DHT22;12356;49.386;8.688;2022-08-18T13:10:50;24.50;66.00
24217;DHT22;12356;49.386;8.688;2022-08-18T13:13:21;24.60;66.00
24217;DHT22;12356;49.386;8.688;2022-08-18T13:15:51;24.60;65.50
24217;DHT22;12356;49.386;8.688;2022-08-18T13:18:25;24.60;65.20
24217;DHT22;12356;49.386;8.688;2022-08-18T13:20:59;24.70;64.10
24217;DHT22;12356;49.386;8.688;2022-08-18T13:23:30;24.70;63.70
24217;DHT22;12356;49.386;8.688;2022-08-18T13:26:03;24.80;64.30
24217;DHT22;12356;49.386;8.688;2022-08-18T13:28:35;24.90;64.30
24217;DHT22;12356;49.386;8.688;2022-08-18T13:31:06;24.90;63.30
24217;DHT22;12356;49.386;8.688;2022-08-18T13:33:36;24.90;62.60
24217;DHT22;12356;49.386;8.688;2022-08-18T13:36:07;24.90;62.50
24217;DHT22;12356;49.386;8.688;2022-08-18T13:38:38;25.00;62.60
24217;DHT22;12356;49.386;8.688;2022-08-18T13:41:12;25.00;62.50
24217;DHT22;12356;49.386;8.688;2022-08-18T13:43:43;25.00;62.50
24217;DHT22;12356;49.386;8.688;2022-08-18T13:46:16;25.00;62.40
24217;DHT22;12356;49.386;8.688;2022-08-18T13:48:47;25.10;61.80
24217;DHT22;12356;49.386;8.688;2022-08-18T13:51:22;25.20;61.20
24217;DHT22;12356;49.386;8.688;2022-08-18T13:53:53;25.20;60.40
24217;DHT22;12356;49.386;8.688;2022-08-18T13:56:23;25.30;60.10
24217;DHT22;12356;49.386;8.688;2022-08-18T13:58:54;25.30;60.60
24217;DHT22;12356;49.386;8.688;2022-08-18T14:01:24;25.40;60.90
24217;DHT22;12356;49.386;8.688;2022-08-18T14:03:55;25.40;59.10
24217;DHT22;12356;49.386;8.688;2022-08-18T14:06:26;25.40;58.00
24217;DHT22;12356;49.386;8.688;2022-08-18T14:08:56;25.40;58.30
24217;DHT22;12356;49.386;8.688;2022-08-18T14:11:29;25.50;56.60
24217;DHT22;12356;49.386;8.688;2022-08-18T14:14:01;25.60;53.20
24217;DHT22;12356;49.386;8.688;2022-08-18T14:16:32;25.60;51.60
24217;DHT22;12356;49.386;8.688;2022-08-18T14:19:03;25.70;52.80
24217;DHT22;12356;49.386;8.688;2022-08-18T14:21:53;25.70;54.00
24217;DHT22;12356;49.386;8.688;2022-08-18T14:24:42;25.70;54.70
24217;DHT22;12356;49.386;8.688;2022-08-18T14:27:35;25.80;55.90
24217;DHT22;12356;49.386;8.688;2022-08-18T14:30:10;25.80;55.70
24217;DHT22;12356;49.386;8.688;2022-08-18T14:32:43;25.80;56.10
24217;DHT22;12356;49.386;8.688;2022-08-18T14:35:14;25.90;55.50
24217;DHT22;12356;49.386;8.688;2022-08-18T14:37:49;26.00;55.10
24217;DHT22;12356;49.386;8.688;2022-08-18T14:40:19;26.00;54.60
24217;DHT22;12356;49.386;8.688;2022-08-18T14:42:50;26.10;53.60
24217;DHT22;12356;49.386;8.688;2022-08-18T14:45:21;26.10;53.20
24217;DHT22;12356;49.386;8.688;2022-08-18T14:47:52;26.10;52.50
24217;DHT22;12356;49.386;8.688;2022-08-18T14:50:23;26.10;52.00
24217;DHT22;12356;49.386;8.688;2022-08-18T14:52:54;26.10;50.80
24217;DHT22;12356;49.386;8.688;2022-08-18T14:55:25;26.10;50.70
24217;DHT22;12356;49.386;8.688;2022-08-18T14:57:55;26.10;49.10
24217;DHT22;12356;49.386;8.688;2022-08-18T15:00:27;26.10;49.50
24217;DHT22;12356;49.386;8.688;2022-08-18T15:02:57;26.10;50.10
24217;DHT22;12356;49.386;8.688;2022-08-18T15:05:28;26.00;51.50
24217;DHT22;12356;49.386;8.688;2022-08-18T15:08:02;26.00;52.80
24217;DHT22;12356;49.386;8.688;2022-08-18T15:10:33;26.00;54.20
24217;DHT22;12356;49.386;8.688;2022-08-18T15:13:04;26.00;54.90
24217;DHT22;12356;49.386;8.688;2022-08-18T15:15:34;26.00;54.20
24217;DHT22;12356;49.386;8.688;2022-08-18T15:18:06;26.10;55.30
24217;DHT22;12356;49.386;8.688;2022-08-18T15:20:38;26.10;54.30
24217;DHT22;12356;49.386;8.688;2022-08-18T15:23:29;26.10;52.40
24217;DHT22;12356;49.386;8.688;2022-08-18T15:26:23;26.10;51.90
24217;DHT22;12356;49.386;8.688;2022-08-18T15:28:55;26.10;52.20
24217;DHT22;12356;49.386;8.688;2022-08-18T15:31:26;26.10;52.50
24217;DHT22;12356;49.386;8.688;2022-08-18T15:33:57;26.10;53.00
24217;DHT22;12356;49.386;8.688;2022-08-18T15:36:29;26.10;53.60
24217;DHT22;12356;49.386;8.688;2022-08-18T15:39:02;26.20;52.80
24217;DHT22;12356;49.386;8.688;2022-08-18T15:41:38;26.10;52.10
24217;DHT22;12356;49.386;8.688;2022-08-18T15:44:09;26.10;51.80
24217;DHT22;12356;49.386;8.688;2022-08-18T15:46:40;26.00;52.30
24217;DHT22;12356;49.386;8.688;2022-08-18T15:49:11;26.00;52.40
24217;DHT22;12356;49.386;8.688;2022-08-18T15:51:42;26.00;52.20
24217;DHT22;12356;49.386;8.688;2022-08-18T15:54:12;25.90;52.50
24217;DHT22;12356;49.386;8.688;2022-08-18T15:56:43;26.00;53.40
24217;DHT22;12356;49.386;8.688;2022-08-18T15:59:14;25.90;52.40
24217;DHT22;12356;49.386;8.688;2022-08-18T16:01:44;25.90;52.20
24217;DHT22;12356;49.386;8.688;2022-08-18T16:04:15;25.80;52.30
24217;DHT22;12356;49.386;8.688;2022-08-18T16:06:45;25.80;52.10
24217;DHT22;12356;49.386;8.688;2022-08-18T16:09:20;25.80;52.40
24217;DHT22;12356;49.386;8.688;2022-08-18T16:11:50;25.70;52.60
24217;DHT22;12356;49.386;8.688;2022-08-18T16:14:21;25.70;52.40
24217;DHT22;12356;49.386;8.688;2022-08-18T16:16:52;25.70;52.50
24217;DHT22;12356;49.386;8.688;2022-08-18T16:19:23;25.60;52.70
24217;DHT22;12356;49.386;8.688;2022-08-18T16:21:54;25.60;52.90
24217;DHT22;12356;49.386;8.688;2022-08-18T16:24:25;25.60;52.70
24217;DHT22;12356;49.386;8.688;2022-08-18T16:26:56;25.60;53.10
24217;DHT22;12356;49.386;8.688;2022-08-18T16:29:27;25.60;53.50
24217;DHT22;12356;49.386;8.688;2022-08-18T16:31:58;25.50;53.80
24217;DHT22;12356;49.386;8.688;2022-08-18T16:34:28;25.50;53.80
24217;DHT22;12356;49.386;8.688;2022-08-18T16:37:00;25.50;53.60
24217;DHT22;12356;49.386;8.688;2022-08-18T16:39:30;25.50;53.50
24217;DHT22;12356;49.386;8.688;2022-08-18T16:42:02;25.50;52.90
24217;DHT22;12356;49.386;8.688;2022-08-18T16:44:33;25.50;52.90
24217;DHT22;12356;49.386;8.688;2022-08-18T16:47:05;25.50;53.30
24217;DHT22;12356;49.386;8.688;2022-08-18T16:49:36;25.50;53.10
24217;DHT22;12356;49.386;8.688;2022-08-18T16:52:07;25.40;52.90
24217;DHT22;12356;49.386;8.688;2022-08-18T16:54:37;25.40;52.90
24217;DHT22;12356;49.386;8.688;2022-08-18T16:57:09;25.40;52.90
24217;DHT22;12356;49.386;8.688;2022-08-18T16:59:39;25.30;53.20
24217;DHT22;12356;49.386;8.688;2022-08-18T17:02:28;25.30;53.10
24217;DHT22;12356;49.386;8.688;2022-08-18T17:05:18;25.30;53.00
24217;DHT22;12356;49.386;8.688;2022-08-18T17:07:48;25.20;52.90
24217;DHT22;12356;49.386;8.688;2022-08-18T17:10:19;25.20;52.00
24217;DHT22;12356;49.386;8.688;2022-08-18T17:12:50;25.20;51.90
24217;DHT22;12356;49.386;8.688;2022-08-18T17:15:20;25.20;51.80
24217;DHT22;12356;49.386;8.688;2022-08-18T17:17:51;25.20;51.80
24217;DHT22;12356;49.386;8.688;2022-08-18T17:20:22;25.20;52.20
24217;DHT22;12356;49.386;8.688;2022-08-18T17:22:53;25.10;51.90
24217;DHT22;12356;49.386;8.688;2022-08-18T17:25:24;25.10;51.80
24217;DHT22;12356;49.386;8.688;2022-08-18T17:27:56;25.10;52.00
24217;DHT22;12356;49.386;8.688;2022-08-18T17:30:31;25.00;52.00
24217;DHT22;12356;49.386;8.688;2022-08-18T17:33:06;25.00;52.20
24217;DHT22;12356;49.386;8.688;2022-08-18T17:35:42;25.00;52.40
24217;DHT22;12356;49.386;8.688;2022-08-18T17:41:03;25.00;52.80
24217;DHT22;12356;49.386;8.688;2022-08-18T17:43:35;25.00;52.90
24217;DHT22;12356;49.386;8.688;2022-08-18T17:46:22;24.90;53.00
24217;DHT22;12356;49.386;8.688;2022-08-18T17:49:26;24.90;53.50
24217;DHT22;12356;49.386;8.688;2022-08-18T17:52:20;24.90;53.40
24217;DHT22;12356;49.386;8.688;2022-08-18T17:54:58;24.90;53.40
24217;DHT22;12356;49.386;8.688;2022-08-18T17:57:32;24.90;53.40
24217;DHT22;12356;49.386;8.688;2022-08-18T18:00:11;24.80;53.30
24217;DHT22;12356;49.386;8.688;2022-08-18T18:02:44;24.80;53.30
24217;DHT22;12356;49.386;8.688;2022-08-18T18:05:18;24.80;53.30
24217;DHT22;12356;49.386;8.688;2022-08-18T18:15:48;24.70;53.20
24217;DHT22;12356;49.386;8.688;2022-08-18T18:18:56;24.70;54.60
24217;DHT22;12356;49.386;8.688;2022-08-18T18:21:29;24.60;55.20
24217;DHT22;12356;49.386;8.688;2022-08-18T18:26:39;24.60;55.70
24217;DHT22;12356;49.386;8.688;2022-08-18T18:29:22;24.60;55.50
24217;DHT22;12356;49.386;8.688;2022-08-18T18:35:18;24.60;55.90
24217;DHT22;12356;49.386;8.688;2022-08-18T18:38:04;24.60;55.40
24217;DHT22;12356;49.386;8.688;2022-08-18T18:43:43;24.50;55.20
24217;DHT22;12356;49.386;8.688;2022-08-18T18:57:02;24.30;52.80